Time;durP1;ratioP1;P1;durP2;ratioP2;P2;SDS_P1;SDS_P2;PMS_P1;PMS_P2;Temp;Humidity;BMP_temperature;BMP_pressure;BME280_temperature;BME280_humidity;BME280_pressure;Samples;Min_cycle;Max_cycle;Signal;HPM_P1;HPM_P2
2021/09/09 00:01:29;;;;;;;30.00;18.40;;;;;;;11.18;75.35;100334.03;115310;1212;22441;-61
2021/09/09 00:03:59;;;;;;;28.90;17.10;;;;;;;11.19;75.46;100333.98;115209;1205;137952;-61
2021/09/09 00:06:27;;;;;;;25.00;17.20;;;;;;;11.18;75.57;100331.23;115337;1208;22384;-62
2021/09/09 00:08:56;;;;;;;30.10;18.50;;;;;;;11.16;75.35;100332.95;115224;1205;138215;-61
2021/09/09 00:11:26;;;;;;;29.00;17.60;;;;;;;11.14;75.57;100332.56;115481;1205;22347;-61
2021/09/09 00:13:54;;;;;;;27.80;17.70;;;;;;;11.12;75.50;100332.86;115511;1205;23041;-62
2021/09/09 00:16:23;;;;;;;28.70;17.80;;;;;;;11.10;75.62;100332.13;115345;1205;137940;-61
2021/09/09 00:18:52;;;;;;;31.20;17.90;;;;;;;11.08;75.75;100331.36;115524;1205;22279;-61
2021/09/09 00:21:36;;;;;;;26.90;18.00;;;;;;;11.04;75.63;100333.03;115370;1200;137945;-61
2021/09/09 00:24:05;;;;;;;23.80;15.80;;;;;;;11.03;75.61;100332.84;115513;1205;22237;-61
2021/09/09 00:26:34;;;;;;;32.10;18.70;;;;;;;11.00;75.60;100335.39;115531;1205;23108;-61
2021/09/09 00:29:02;;;;;;;24.90;17.00;;;;;;;10.96;75.74;100332.04;115352;1201;140604;-61
2021/09/09 00:31:31;;;;;;;28.40;17.80;;;;;;;10.94;75.87;100331.19;115461;1207;22302;-61
2021/09/09 00:33:59;;;;;;;29.60;17.90;;;;;;;10.92;76.14;100333.66;115424;1202;138905;-61
2021/09/09 00:36:31;;;;;;;26.80;18.10;;;;;;;10.91;76.02;100334.23;113204;1205;23755;-61
2021/09/09 00:39:01;;;;;;;26.00;16.90;;;;;;;10.89;76.01;100331.45;115332;1201;139898;-61
2021/09/09 00:41:30;;;;;;;25.60;16.50;;;;;;;10.85;75.95;100328.54;115524;1205;22319;-61
2021/09/09 00:44:00;;;;;;;28.30;18.40;;;;;;;10.81;76.30;100328.89;115388;1212;22262;-61
2021/09/09 00:46:31;;;;;;;25.30;16.60;;;;;;;10.79;76.31;100329.77;115388;1201;138939;-61
2021/09/09 00:48:59;;;;;;;28.60;16.50;;;;;;;10.77;76.63;100333.16;115423;1205;22319;-62
2021/09/09 00:51:27;;;;;;;24.50;16.60;;;;;;;10.76;76.76;100332.98;115423;1202;139602;-61
2021/09/09 00:53:55;;;;;;;28.20;17.80;;;;;;;10.74;76.71;100335.72;115510;1205;22299;-61
2021/09/09 00:56:23;;;;;;;27.20;16.40;;;;;;;10.72;76.75;100337.85;115487;1205;22218;-61
2021/09/09 00:58:51;;;;;;;23.00;15.80;;;;;;;10.70;76.53;100336.80;115420;1201;137901;-61
2021/09/09 01:01:20;;;;;;;25.90;15.80;;;;;;;10.68;76.49;100336.27;115464;1205;22350;-61
2021/09/09 01:03:50;;;;;;;26.50;16.80;;;;;;;10.63;76.78;100333.46;115441;1205;137912;-61
2021/09/09 01:06:18;;;;;;;24.50;16.20;;;;;;;10.61;76.69;100335.10;115476;1204;22334;-61
2021/09/09 01:08:47;;;;;;;23.80;16.40;;;;;;;10.60;76.86;100336.70;115396;1202;138836;-61
2021/09/09 01:11:19;;;;;;;23.00;16.30;;;;;;;10.59;77.14;100334.34;115493;1205;22987;-62
2021/09/09 01:13:51;;;;;;;28.80;16.90;;;;;;;10.58;77.15;100333.13;115505;1205;22348;-62
2021/09/09 01:16:19;;;;;;;26.30;16.50;;;;;;;10.57;77.32;100334.31;115359;1202;139466;-62
2021/09/09 01:18:55;;;;;;;27.90;17.30;;;;;;;10.57;77.10;100328.52;115509;1211;23394;-62
2021/09/09 01:21:23;;;;;;;25.10;15.30;;;;;;;10.54;76.95;100330.14;115376;1202;138030;-62
2021/09/09 01:23:54;;;;;;;28.80;16.50;;;;;;;10.50;77.17;100326.90;115507;1205;22370;-62
2021/09/09 01:26:23;;;;;;;26.10;16.20;;;;;;;10.51;77.34;100332.98;115519;1206;23115;-62
2021/09/09 01:28:51;;;;;;;28.20;15.40;;;;;;;10.51;77.11;100330.35;115387;1202;138304;-62
2021/09/09 01:31:19;;;;;;;25.00;15.40;;;;;;;10.50;77.08;100329.06;115553;1205;22333;-61
2021/09/09 01:33:48;;;;;;;27.20;16.30;;;;;;;10.48;77.06;100326.91;115389;1201;141300;-62
2021/09/09 01:36:16;;;;;;;28.50;17.20;;;;;;;10.47;77.18;100331.13;115533;1205;22292;-62
2021/09/09 01:38:45;;;;;;;27.00;16.90;;;;;;;10.46;77.18;100327.33;115366;1202;139896;-61
2021/09/09 01:41:13;;;;;;;30.20;16.10;;;;;;;10.46;77.33;100324.77;115542;1205;22296;-62
2021/09/09 01:43:42;;;;;;;30.00;16.10;;;;;;;10.46;77.42;100324.77;115544;1205;22348;-62
2021/09/09 01:46:10;;;;;;;27.30;15.70;;;;;;;10.45;77.37;100322.10;115399;1201;138366;-62
2021/09/09 01:48:38;;;;;;;26.30;17.60;;;;;;;10.46;77.14;100321.51;115528;1204;22322;-61
2021/09/09 01:51:06;;;;;;;27.10;17.20;;;;;;;10.45;77.26;100318.76;115319;1205;138365;-61
2021/09/09 01:53:34;;;;;;;24.90;16.50;;;;;;;10.44;77.45;100321.08;115548;1205;22315;-62
2021/09/09 01:56:03;;;;;;;23.80;15.60;;;;;;;10.43;77.62;100318.02;115567;1204;23308;-62
2021/09/09 01:58:31;;;;;;;24.60;16.00;;;;;;;10.43;77.45;100322.26;115496;1201;138379;-62
2021/09/09 02:00:59;;;;;;;32.40;19.60;;;;;;;10.43;77.45;100321.80;115585;1205;22362;-62
2021/09/09 02:03:28;;;;;;;25.90;16.60;;;;;;;10.44;77.42;100321.11;115530;1200;137861;-61
2021/09/09 02:05:56;;;;;;;30.90;18.60;;;;;;;10.44;77.31;100321.52;115567;1205;22360;-62
2021/09/09 02:08:27;;;;;;;27.40;18.50;;;;;;;10.45;77.42;100318.92;115605;1205;22274;-62
2021/09/09 02:10:56;;;;;;;30.60;19.90;;;;;;;10.46;77.58;100323.59;115372;1202;137794;-62
2021/09/09 02:13:24;;;;;;;29.20;17.90;;;;;;;10.48;77.71;100317.86;115640;1205;24340;-62
2021/09/09 02:15:52;;;;;;;27.30;17.10;;;;;;;10.50;77.55;100318.12;115460;1201;139093;-62
2021/09/09 02:18:20;;;;;;;28.90;18.40;;;;;;;10.50;77.44;100319.76;115589;1205;22312;-62
2021/09/09 02:21:07;;;;;;;23.20;17.30;;;;;;;10.49;77.21;100318.00;115385;1201;138905;-62
2021/09/09 02:23:35;;;;;;;33.90;19.70;;;;;;;10.51;77.22;100316.19;115589;1205;22185;-62
2021/09/09 02:26:04;;;;;;;33.00;18.50;;;;;;;10.52;77.12;100311.30;115636;1208;22331;-62
2021/09/09 02:28:32;;;;;;;31.70;19.00;;;;;;;10.52;77.29;100314.09;115444;1202;138036;-62
2021/09/09 02:31:00;;;;;;;32.40;17.40;;;;;;;10.53;77.61;100316.83;115650;1205;23013;-62
2021/09/09 02:33:28;;;;;;;25.50;16.40;;;;;;;10.54;77.62;100316.39;115443;1200;138360;-62
2021/09/09 02:35:56;;;;;;;30.50;19.10;;;;;;;10.54;77.38;100313.83;115623;1205;22326;-62
2021/09/09 02:38:25;;;;;;;29.40;17.00;;;;;;;10.54;77.50;100311.94;115560;1205;22998;-62
2021/09/09 02:40:53;;;;;;;27.00;18.00;;;;;;;10.54;77.24;100313.02;115410;1208;137967;-62
2021/09/09 02:43:21;;;;;;;33.70;18.30;;;;;;;10.55;77.18;100311.84;115591;1205;22420;-62
2021/09/09 02:45:49;;;;;;;31.10;17.60;;;;;;;10.55;77.22;100309.83;115384;1201;138020;-62
2021/09/09 02:48:17;;;;;;;26.30;17.20;;;;;;;10.56;77.13;100317.36;115629;1205;22233;-62
2021/09/09 02:50:45;;;;;;;31.30;18.70;;;;;;;10.56;77.24;100319.34;115468;1202;138341;-60
2021/09/09 02:53:13;;;;;;;31.70;18.20;;;;;;;10.55;77.33;100318.50;115514;1204;22117;-60
2021/09/09 02:55:41;;;;;;;30.00;16.80;;;;;;;10.56;77.56;100321.72;115584;1204;23450;-60
2021/09/09 02:58:18;;;;;;;32.20;17.70;;;;;;;10.55;77.58;100320.89;115507;1202;138233;-60
2021/09/09 03:00:46;;;;;;;29.00;17.30;;;;;;;10.55;77.43;100322.91;115536;1204;23482;-60
2021/09/09 03:03:14;;;;;;;29.70;19.50;;;;;;;10.54;77.15;100318.69;115535;1202;138359;-60
2021/09/09 03:05:43;;;;;;;28.30;16.80;;;;;;;10.54;77.12;100321.13;115558;1205;22273;-61
2021/09/09 03:08:11;;;;;;;29.00;17.10;;;;;;;10.52;76.98;100316.80;115464;1204;22343;-60
2021/09/09 03:10:59;;;;;;;;;;;;;;;10.46;77.09;100313.98;115494;1201;138142;-61
2021/09/09 03:13:47;;;;;;;35.00;16.60;;;;;;;10.44;77.07;100312.69;115546;1205;23483;-61
2021/09/09 03:16:15;;;;;;;34.30;18.00;;;;;;;10.42;76.93;100313.06;115521;1201;138882;-61
2021/09/09 03:18:44;;;;;;;33.60;18.10;;;;;;;10.40;76.95;100314.38;115511;1204;22312;-60
2021/09/09 03:21:12;;;;;;;29.20;16.80;;;;;;;10.39;77.15;100312.58;115403;1201;138343;-60
2021/09/09 03:23:40;;;;;;;31.50;19.00;;;;;;;10.39;77.23;100312.69;115573;1205;22327;-60
2021/09/09 03:26:09;;;;;;;31.30;17.70;;;;;;;10.38;77.46;100312.77;115612;1205;22941;-60
2021/09/09 03:28:38;;;;;;;27.70;17.70;;;;;;;10.36;77.36;100315.23;115339;1202;137996;-60
2021/09/09 03:31:06;;;;;;;29.00;18.30;;;;;;;10.35;77.45;100315.59;115565;1204;22978;-60
2021/09/09 03:33:34;;;;;;;32.50;19.10;;;;;;;10.34;77.59;100319.92;115457;1202;139192;-60
2021/09/09 03:36:04;;;;;;;28.10;18.30;;;;;;;10.33;77.56;100320.23;115564;1198;23022;-60
2021/09/09 03:38:32;;;;;;;37.70;18.60;;;;;;;10.32;77.74;100319.11;115582;1204;22236;-60
2021/09/09 03:41:00;;;;;;;32.10;18.20;;;;;;;10.32;77.89;100320.96;115413;1200;138907;-60
2021/09/09 03:43:28;;;;;;;28.10;17.80;;;;;;;10.32;77.93;100323.97;115611;1205;23414;-61
2021/09/09 03:45:56;;;;;;;24.20;17.70;;;;;;;10.33;77.86;100328.24;115466;1201;138386;-60
2021/09/09 03:48:25;;;;;;;36.40;17.50;;;;;;;10.32;77.83;100329.95;115592;1205;22759;-60
2021/09/09 03:50:53;;;;;;;30.90;19.30;;;;;;;10.33;77.83;100332.97;115417;1201;142208;-60
2021/09/09 03:53:21;;;;;;;33.40;18.50;;;;;;;10.33;78.14;100333.56;115620;1204;22289;-60
2021/09/09 03:55:49;;;;;;;34.60;17.50;;;;;;;10.33;78.27;100331.88;115347;1205;22346;-60
2021/09/09 03:58:18;;;;;;;39.30;18.90;;;;;;;10.36;78.21;100340.96;115488;1202;138524;-60
2021/09/09 04:00:46;;;;;;;40.60;18.70;;;;;;;10.39;78.41;100336.50;115524;1205;22446;-60
2021/09/09 04:03:14;;;;;;;35.60;18.30;;;;;;;10.41;78.58;100330.81;115466;1202;139050;-60
2021/09/09 04:05:42;;;;;;;32.10;18.90;;;;;;;10.47;78.55;100334.89;115481;1208;22993;-60
2021/09/09 04:08:30;;;;;;;;;;;;;;;10.54;78.82;100333.30;115455;1205;22392;-60
2021/09/09 04:10:59;;;;;;;42.20;20.00;;;;;;;10.60;78.97;100333.89;115492;1202;124216;-60
2021/09/09 04:13:27;;;;;;;45.50;18.90;;;;;;;10.71;79.29;100333.73;115561;1205;22270;-60
2021/09/09 04:15:55;;;;;;;42.80;19.70;;;;;;;10.82;79.50;100327.71;115477;1202;139787;-60
2021/09/09 04:18:31;;;;;;;50.90;19.70;;;;;;;10.98;79.43;100327.79;115449;1204;22215;-60
2021/09/09 04:20:59;;;;;;;60.00;21.30;;;;;;;11.10;79.43;100330.76;115451;1202;138459;-60
2021/09/09 04:23:27;;;;;;;53.10;22.90;;;;;;;11.20;79.55;100330.59;115563;1204;22343;-64
2021/09/09 04:25:55;;;;;;;46.70;22.40;;;;;;;11.29;79.46;100327.53;115547;1205;23602;-63
2021/09/09 04:28:23;;;;;;;44.00;21.30;;;;;;;11.40;79.50;100328.23;115469;1202;139605;-63
2021/09/09 04:30:52;;;;;;;34.90;21.30;;;;;;;11.55;79.64;100327.55;115563;1204;22315;-60
2021/09/09 04:33:20;;;;;;;43.50;21.40;;;;;;;11.77;79.60;100329.33;115386;1202;138317;-60
2021/09/09 04:35:48;;;;;;;42.50;22.30;;;;;;;12.04;79.33;100326.04;115534;1205;22383;-61
2021/09/09 04:38:16;;;;;;;44.30;21.70;;;;;;;12.36;78.85;100325.83;115601;1208;22349;-60
2021/09/09 04:40:44;;;;;;;38.10;20.60;;;;;;;12.67;78.01;100327.00;115433;1201;138329;-60
2021/09/09 04:43:34;;;;;;;;;;;;;;;13.04;77.23;100325.26;115528;1205;22311;-60
2021/09/09 04:46:03;;;;;;;33.50;21.20;;;;;;;13.34;76.26;100319.45;115453;1204;125203;-60
2021/09/09 04:48:32;;;;;;;38.80;21.90;;;;;;;13.61;75.70;100318.92;115566;1205;22367;-61
2021/09/09 04:51:00;;;;;;;49.20;23.00;;;;;;;13.85;75.02;100315.72;115477;1202;139693;-61
2021/09/09 04:53:29;;;;;;;45.30;22.20;;;;;;;14.10;73.95;100315.04;115587;1205;22340;-61
2021/09/09 04:55:57;;;;;;;39.20;21.80;;;;;;;14.29;73.17;100315.95;115562;1205;22244;-61
2021/09/09 04:58:25;;;;;;;46.80;21.80;;;;;;;14.42;72.65;100313.17;115438;1199;139244;-61
2021/09/09 05:00:53;;;;;;;48.00;24.50;;;;;;;14.51;72.16;100307.88;115626;1205;22301;-62
2021/09/09 05:03:21;;;;;;;45.90;26.50;;;;;;;14.60;71.61;100305.00;115457;1205;138544;-61
2021/09/09 05:05:50;;;;;;;51.90;26.40;;;;;;;14.66;71.36;100305.38;115544;1208;22434;-61
2021/09/09 05:08:18;;;;;;;51.20;26.00;;;;;;;14.75;71.39;100306.20;115518;1206;23223;-60
2021/09/09 05:10:46;;;;;;;49.90;24.60;;;;;;;14.85;70.97;100305.53;115391;1202;137753;-61
2021/09/09 05:13:15;;;;;;;44.40;22.80;;;;;;;14.92;70.52;100306.83;115561;1205;22283;-61
2021/09/09 05:15:44;;;;;;;55.30;25.00;;;;;;;14.97;70.32;100305.92;115485;1201;138273;-61
2021/09/09 05:18:12;;;;;;;46.20;22.70;;;;;;;15.02;70.22;100310.38;115576;1209;22269;-61
2021/09/09 05:20:40;;;;;;;57.60;23.20;;;;;;;15.09;70.12;100306.19;115575;1205;22373;-61
2021/09/09 05:23:08;;;;;;;39.10;22.00;;;;;;;15.19;69.95;100310.88;115353;1201;138103;-61
2021/09/09 05:25:36;;;;;;;50.10;22.80;;;;;;;15.29;69.98;100308.01;115576;1205;22324;-61
2021/09/09 05:28:04;;;;;;;50.90;22.00;;;;;;;15.38;69.80;100306.56;115381;1202;138503;-61
2021/09/09 05:30:32;;;;;;;50.40;21.40;;;;;;;15.47;69.64;100304.05;115511;1205;22339;-61
2021/09/09 05:33:00;;;;;;;42.60;20.40;;;;;;;15.57;69.21;100304.60;115397;1202;138916;-61
2021/09/09 05:35:28;;;;;;;47.40;22.20;;;;;;;15.62;68.86;100300.20;115542;1205;23054;-61
2021/09/09 05:37:56;;;;;;;42.80;21.80;;;;;;;15.67;68.43;100297.98;115631;1205;22333;-63
2021/09/09 05:40:24;;;;;;;37.40;20.00;;;;;;;15.72;68.32;100299.35;115365;1202;137546;-65
2021/09/09 05:42:53;;;;;;;46.90;22.10;;;;;;;15.77;67.91;100301.01;115573;1205;22359;-61
2021/09/09 05:45:21;;;;;;;51.20;23.20;;;;;;;15.81;67.64;100295.90;115408;1202;137983;-61
2021/09/09 05:47:48;;;;;;;51.80;22.30;;;;;;;15.85;67.54;100301.30;115566;1207;22467;-63
2021/09/09 05:50:29;;;;;;;35.30;20.40;;;;;;;15.89;67.52;100298.52;115533;1205;23000;-60
2021/09/09 05:52:58;;;;;;;34.60;18.90;;;;;;;15.91;67.32;100298.33;115302;1205;138287;-61
2021/09/09 05:55:26;;;;;;;29.30;17.80;;;;;;;15.97;67.18;100303.60;115053;1204;22438;-61
2021/09/09 05:57:54;;;;;;;32.60;18.20;;;;;;;16.00;66.82;100298.94;111227;1202;138544;-61
2021/09/09 06:00:24;;;;;;;32.60;18.50;;;;;;;16.05;66.62;100296.77;115378;1205;22365;-62
2021/09/09 06:02:52;;;;;;;34.80;18.90;;;;;;;16.10;66.72;100297.23;115417;1201;138987;-62
2021/09/09 06:05:22;;;;;;;29.20;17.90;;;;;;;16.14;66.81;100291.78;115593;1208;23438;-62
2021/09/09 06:07:50;;;;;;;36.10;17.30;;;;;;;16.23;66.73;100291.72;115374;1206;22325;-62
2021/09/09 06:10:19;;;;;;;35.00;18.80;;;;;;;16.29;66.24;100292.05;115329;1202;137830;-65
2021/09/09 06:12:47;;;;;;;28.20;18.90;;;;;;;16.35;66.23;100291.53;115588;1211;23031;-66
2021/09/09 06:15:16;;;;;;;30.50;18.50;;;;;;;16.40;66.15;100289.45;115461;1201;138501;-62
2021/09/09 06:17:44;;;;;;;31.70;19.70;;;;;;;16.46;65.71;100288.88;115553;1205;23008;-62
2021/09/09 06:20:14;;;;;;;32.50;19.00;;;;;;;16.53;65.59;100290.58;115813;1203;22292;-62
2021/09/09 06:22:43;;;;;;;42.90;20.40;;;;;;;16.59;65.49;100291.77;115611;1198;137712;-62
2021/09/09 06:25:11;;;;;;;45.80;20.10;;;;;;;16.64;65.31;100287.00;115786;1205;22362;-64
2021/09/09 06:27:39;;;;;;;34.80;18.80;;;;;;;16.72;65.18;100291.66;115492;1200;138843;-66
2021/09/09 06:30:08;;;;;;;29.80;19.40;;;;;;;16.76;64.96;100292.84;115804;1202;22773;-66
2021/09/09 06:32:36;;;;;;;29.10;18.40;;;;;;;16.80;64.67;100292.08;115759;1202;23192;-65
2021/09/09 06:35:05;;;;;;;28.80;17.30;;;;;;;16.85;64.59;100294.05;115662;1199;138178;-66
2021/09/09 06:37:33;;;;;;;35.90;18.40;;;;;;;16.91;64.28;100295.88;115779;1202;23452;-66
2021/09/09 06:40:02;;;;;;;29.80;17.20;;;;;;;16.96;64.13;100295.65;115665;1199;137757;-65
2021/09/09 06:42:31;;;;;;;29.90;18.00;;;;;;;17.03;63.57;100297.44;115731;1203;23238;-65
2021/09/09 06:44:59;;;;;;;30.70;16.30;;;;;;;17.07;63.35;100297.30;115684;1202;138948;-64
2021/09/09 06:47:27;;;;;;;35.00;17.90;;;;;;;17.12;63.79;100295.80;115733;1203;22420;-65
2021/09/09 06:49:55;;;;;;;26.10;17.10;;;;;;;17.19;63.69;100294.89;115740;1209;23033;-65
2021/09/09 06:52:23;;;;;;;30.40;16.90;;;;;;;17.25;63.31;100297.11;115645;1202;137897;-65
2021/09/09 06:54:51;;;;;;;29.60;17.20;;;;;;;17.32;63.15;100294.31;115715;1209;22272;-65
2021/09/09 06:57:20;;;;;;;24.30;16.30;;;;;;;17.38;63.34;100292.75;115657;1201;138215;-65
2021/09/09 06:59:48;;;;;;;27.90;16.70;;;;;;;17.48;63.04;100297.77;115750;1202;22957;-65
2021/09/09 07:02:16;;;;;;;37.60;16.30;;;;;;;17.54;62.85;100303.02;115744;1210;22315;-63
2021/09/09 07:04:44;;;;;;;43.40;16.90;;;;;;;17.60;62.58;100304.63;115727;1198;138211;-62
2021/09/09 07:07:13;;;;;;;25.70;16.50;;;;;;;17.65;62.61;100308.04;115724;1202;22341;-62
2021/09/09 07:09:41;;;;;;;26.50;16.40;;;;;;;17.71;62.57;100306.91;115628;1201;138759;-62
2021/09/09 07:12:10;;;;;;;26.70;15.20;;;;;;;17.75;62.28;100307.31;115789;1206;23372;-62
2021/09/09 07:14:38;;;;;;;23.80;16.30;;;;;;;17.80;62.34;100306.89;115752;1202;22336;-63
2021/09/09 07:17:06;;;;;;;35.50;18.20;;;;;;;17.86;62.18;100308.52;115673;1199;137929;-62
2021/09/09 07:19:36;;;;;;;35.80;20.60;;;;;;;17.91;62.14;100305.64;115721;1210;22329;-62
2021/09/09 07:22:04;;;;;;;48.60;23.60;;;;;;;17.98;62.21;100304.50;115641;1199;138979;-62
2021/09/09 07:24:32;;;;;;;42.20;20.20;;;;;;;18.04;62.05;100307.70;115824;1206;23183;-62
2021/09/09 07:27:00;;;;;;;37.90;23.10;;;;;;;18.09;61.90;100306.12;115660;1202;138365;-62
2021/09/09 07:29:28;;;;;;;30.70;20.50;;;;;;;18.13;61.71;100302.40;115740;1201;23243;-63
2021/09/09 07:31:56;;;;;;;32.40;18.20;;;;;;;18.20;61.59;100304.48;115803;1205;22304;-63
2021/09/09 07:34:25;;;;;;;33.40;17.40;;;;;;;18.26;61.44;100305.27;115608;1199;138893;-63
2021/09/09 07:36:55;;;;;;;32.70;19.70;;;;;;;18.32;61.34;100306.91;115838;1203;22331;-63
2021/09/09 07:39:23;;;;;;;26.90;17.50;;;;;;;18.39;61.43;100310.98;115552;1205;138777;-63
2021/09/09 07:41:51;;;;;;;26.50;15.10;;;;;;;18.45;61.50;100313.75;115749;1205;22347;-63
2021/09/09 07:44:19;;;;;;;22.90;15.30;;;;;;;18.53;60.89;100315.48;115793;1201;22304;-61
2021/09/09 07:46:47;;;;;;;91.90;55.60;;;;;;;18.60;60.79;100312.58;115663;1202;138527;-62
2021/09/09 07:49:20;;;;;;;33.10;20.00;;;;;;;18.66;60.68;100309.47;115695;1205;22348;-62
2021/09/09 07:51:49;;;;;;;37.50;15.80;;;;;;;18.73;60.63;100311.18;115641;1198;138228;-65
2021/09/09 07:54:17;;;;;;;27.70;14.20;;;;;;;18.81;60.39;100316.33;115740;1202;22264;-65
2021/09/09 07:56:47;;;;;;;25.00;13.70;;;;;;;18.88;59.92;100309.79;115766;1205;22207;-65
2021/09/09 07:59:16;;;;;;;25.80;13.80;;;;;;;18.96;59.86;100309.52;115522;1198;137323;-62
2021/09/09 08:01:44;;;;;;;20.60;13.40;;;;;;;19.02;59.70;100309.57;115741;1201;22360;-63
2021/09/09 08:04:33;;;;;;;21.20;13.50;;;;;;;19.10;59.21;100310.52;115592;1202;137931;-63
2021/09/09 08:07:01;;;;;;;24.50;14.30;;;;;;;19.15;59.15;100306.80;112338;1203;22435;-66
2021/09/09 08:09:30;;;;;;;22.80;14.60;;;;;;;19.24;58.66;100308.23;115514;1198;139822;-67
2021/09/09 08:12:18;;;;;;;23.60;13.60;;;;;;;19.33;58.49;100303.91;115696;1202;22329;-67
2021/09/09 08:14:47;;;;;;;21.70;13.60;;;;;;;19.40;57.89;100302.88;115692;1206;23155;-67
2021/09/09 08:17:15;;;;;;;31.30;13.70;;;;;;;19.49;58.04;100302.39;115558;1198;139817;-67
2021/09/09 08:20:04;;;;;;;32.70;16.30;;;;;;;19.56;58.10;100299.81;115705;1209;22328;-67
2021/09/09 08:22:53;;;;;;;31.50;14.80;;;;;;;19.63;58.69;100306.12;115589;1198;137451;-68
2021/09/09 08:25:22;;;;;;;24.50;14.00;;;;;;;19.69;58.77;100298.67;115690;1203;22372;-68
2021/09/09 08:27:50;;;;;;;21.60;13.80;;;;;;;19.75;58.34;100297.04;115614;1198;137598;-67
2021/09/09 08:30:18;;;;;;;21.20;14.30;;;;;;;19.83;58.41;100294.66;115744;1205;23051;-68
2021/09/09 08:32:46;;;;;;;23.00;14.10;;;;;;;19.88;58.43;100292.10;115653;1210;22351;-68
2021/09/09 08:35:14;;;;;;;25.40;14.80;;;;;;;19.94;58.64;100294.30;115538;1203;137500;-68
2021/09/09 08:37:43;;;;;;;23.60;14.30;;;;;;;20.00;58.77;100294.21;111463;1203;24777;-68
2021/09/09 08:40:11;;;;;;;26.20;15.40;;;;;;;20.07;57.87;100298.46;111309;1202;137496;-67
2021/09/09 08:42:42;;;;;;;23.90;12.90;;;;;;;20.12;57.05;100293.79;111370;1206;25211;-67
2021/09/09 08:45:13;;;;;;;17.70;13.10;;;;;;;20.17;57.05;100293.72;111342;1198;137621;-67
2021/09/09 08:47:41;;;;;;;22.50;13.50;;;;;;;20.22;56.97;100292.86;111431;1201;23851;-67
2021/09/09 08:50:10;;;;;;;23.90;13.90;;;;;;;20.27;57.28;100293.65;115572;1204;22492;-67
2021/09/09 08:52:38;;;;;;;21.20;11.80;;;;;;;20.30;57.14;100292.21;115650;1198;139398;-67
2021/09/09 08:55:07;;;;;;;21.20;12.40;;;;;;;20.34;56.81;100296.01;115751;1202;22231;-67
2021/09/09 08:57:35;;;;;;;20.40;13.40;;;;;;;20.39;56.33;100297.05;115610;1200;140310;-68
2021/09/09 09:00:04;;;;;;;18.30;12.20;;;;;;;20.44;56.04;100296.41;115723;1202;22989;-68
2021/09/09 09:02:49;;;;;;;17.80;11.40;;;;;;;20.50;56.24;100294.76;115677;1210;22254;-68
2021/09/09 09:05:17;;;;;;;27.60;11.30;;;;;;;20.56;55.63;100292.66;115638;1198;138593;-67
2021/09/09 09:07:46;;;;;;;16.70;10.30;;;;;;;20.61;55.26;100288.02;115698;1201;23490;-68
2021/09/09 09:10:14;;;;;;;13.70;10.50;;;;;;;20.66;54.27;100280.66;115558;1202;138120;-67
2021/09/09 09:13:02;;;;;;;13.00;10.60;;;;;;;20.74;54.53;100285.89;115752;1205;23111;-68
2021/09/09 09:15:31;;;;;;;14.50;10.40;;;;;;;20.78;54.73;100280.63;115821;1198;22364;-66
2021/09/09 09:18:07;;;;;;;19.10;10.40;;;;;;;20.85;54.93;100278.30;115450;1198;139010;-65
2021/09/09 09:20:50;;;;;;;19.70;10.20;;;;;;;20.91;54.12;100283.89;115785;1202;22319;-65
2021/09/09 09:23:21;;;;;;;16.70;9.20;;;;;;;20.98;53.67;100277.92;115661;1199;138970;-64
2021/09/09 09:26:01;;;;;;;16.10;9.60;;;;;;;21.00;52.90;100268.58;115748;1201;22353;-65
2021/09/09 09:28:44;;;;;;;16.30;9.30;;;;;;;21.06;53.00;100267.73;115612;1199;137915;-68
2021/09/09 09:31:22;;;;;;;13.60;9.10;;;;;;;21.11;52.40;100272.44;115709;1205;24614;-67
2021/09/09 09:33:55;;;;;;;13.60;9.50;;;;;;;21.15;52.72;100268.35;115708;1203;22295;-68
2021/09/09 09:36:32;;;;;;;21.50;9.90;;;;;;;21.20;52.58;100264.30;115646;1201;137983;-67
2021/09/09 09:39:18;;;;;;;12.80;9.40;;;;;;;21.25;52.29;100260.41;115702;1209;22757;-67
2021/09/09 09:41:52;;;;;;;13.70;9.30;;;;;;;21.29;51.67;100260.95;115592;1198;137329;-67
2021/09/09 09:44:39;;;;;;;14.80;8.50;;;;;;;21.33;50.96;100255.48;115747;1205;22381;-68
2021/09/09 09:47:20;;;;;;;13.60;8.40;;;;;;;21.37;50.38;100249.88;115616;1198;137590;-67
2021/09/09 09:50:18;;;;;;;12.20;9.50;;;;;;;21.42;50.38;100249.98;115652;1205;22262;-65
2021/09/09 09:52:46;;;;;;;21.10;9.20;;;;;;;21.46;49.80;100246.02;115614;1199;137639;-66
2021/09/09 09:55:14;;;;;;;12.60;8.90;;;;;;;21.50;50.08;100245.69;115696;1206;23062;-66
2021/09/09 09:57:57;;;;;;;14.90;8.90;;;;;;;21.55;50.42;100246.15;115643;1201;22329;-67
2021/09/09 10:00:25;;;;;;;13.80;9.00;;;;;;;21.59;50.29;100243.23;115637;1202;137614;-68
2021/09/09 10:02:58;;;;;;;11.00;8.80;;;;;;;21.62;49.96;100243.05;115631;1209;22435;-67
2021/09/09 10:05:27;;;;;;;11.70;9.00;;;;;;;21.64;49.47;100240.45;115674;1201;137609;-67
2021/09/09 10:08:00;;;;;;;14.40;10.60;;;;;;;21.67;49.29;100237.92;115393;1203;138608;-67
2021/09/09 10:10:29;;;;;;;11.90;9.20;;;;;;;21.70;49.32;100237.57;115703;1202;22342;-67
2021/09/09 10:12:57;;;;;;;51.30;33.20;;;;;;;21.74;49.88;100233.92;115539;1205;23075;-68
2021/09/09 10:15:26;;;;;;;49.90;26.30;;;;;;;21.77;50.53;100233.48;115164;1198;137838;-67
2021/09/09 10:18:06;;;;;;;22.90;14.50;;;;;;;21.82;50.07;100231.29;111403;1205;24076;-69
2021/09/09 10:20:37;;;;;;;17.00;12.50;;;;;;;21.84;49.95;100227.30;111462;1202;138308;-69
2021/09/09 10:23:09;;;;;;;14.50;10.50;;;;;;;21.86;49.77;100227.23;115733;1202;23376;-70
2021/09/09 10:25:44;;;;;;;15.30;9.50;;;;;;;21.87;49.82;100219.84;115591;1198;138898;-68
2021/09/09 10:31:13;;;;;;;11.40;9.10;;;;;;;21.91;49.09;100221.38;115688;1202;22210;-68
2021/09/09 10:33:45;;;;;;;15.20;8.70;;;;;;;21.95;48.75;100223.41;115542;1199;137327;-68
2021/09/09 10:36:40;;;;;;;16.20;9.30;;;;;;;21.96;49.49;100216.01;115651;1205;22718;-69
2021/09/09 10:39:18;;;;;;;16.00;9.50;;;;;;;22.00;49.48;100215.55;115458;1199;139019;-68
2021/09/09 10:41:47;;;;;;;11.50;8.50;;;;;;;22.03;48.97;100214.23;115597;1202;22361;-67
2021/09/09 10:44:15;;;;;;;13.50;9.50;;;;;;;22.05;48.40;100217.19;115502;1199;138264;-69
2021/09/09 10:46:47;;;;;;;10.90;8.60;;;;;;;22.09;47.88;100216.13;115623;1202;22413;-69
2021/09/09 10:49:19;;;;;;;18.50;9.10;;;;;;;22.12;48.36;100211.66;115686;1202;22296;-70
2021/09/09 10:52:14;;;;;;;9.90;8.30;;;;;;;22.14;48.76;100209.40;115454;1201;136929;-69
2021/09/09 10:55:10;;;;;;;12.70;8.30;;;;;;;22.16;48.77;100205.63;115583;1201;22765;-64
2021/09/09 10:57:43;;;;;;;25.00;10.60;;;;;;;22.18;49.08;100202.48;115581;1203;137814;-66
2021/09/09 11:00:16;;;;;;;14.30;9.40;;;;;;;22.20;48.66;100201.58;115357;1210;22381;-66
2021/09/09 11:02:44;;;;;;;16.20;9.10;;;;;;;22.24;48.11;100204.58;115488;1199;138206;-69
2021/09/09 11:05:13;;;;;;;11.50;8.80;;;;;;;22.27;47.99;100201.79;115574;1202;22361;-68
2021/09/09 11:07:43;;;;;;;14.00;8.90;;;;;;;22.29;47.81;100192.68;115501;1199;138246;-69
2021/09/09 11:10:11;;;;;;;13.00;8.00;;;;;;;22.30;47.63;100190.50;115685;1202;22295;-69
2021/09/09 11:13:23;;;;;;;39.40;10.40;;;;;;;22.30;47.29;100182.83;115673;1206;23167;-69
2021/09/09 11:15:51;;;;;;;16.70;8.40;;;;;;;22.31;48.13;100181.52;115441;1198;137699;-69
2021/09/09 11:18:30;;;;;;;13.80;9.40;;;;;;;22.33;48.04;100177.52;115580;1206;23177;-69